Climatologie pour Saint-Brevin les Pins
Jour • Résumé pour mai 21, 2017 Système :  Métrique    Anglais   Mixte
« - 1 jour
+ 1 jour »
Jour Semaine Mois Année Personnalisé
  Maximum : Minimum : Moyenne :
Température sous abri : 23.6 °C 7.0 °C 15.4 °C
Point de rosée : 13.6 °C 6.6 °C 10.2 °C
Humidité : 97 % 46 % 74 %
Vitesse du vent : 22.5 km/h 0.0 km/h 5.8 km/h
Rafale : 33.8 km/h - -
Direction :- - ESE
Pression : 1024.9 hPa 1015.1 hPa -
Précipitations : 0.0 mm    
Historical Graphs
 
 
Tableau de données pour mai 21, 2017
Heure Tempé Pt rosée Pression Vent Vitesse Rafale Humidité Taux pluie (/hr) Soleil
00:00 9.9 °C 8.5 °C 1024.9 hPa Calm     91 % 0.0 mm 0 W/m2
00:05 9.7 °C 8.3 °C 1024.9 hPa Calm     91 % 0.0 mm 0 W/m2
00:10 9.6 °C 8.3 °C 1024.9 hPa Calm     92 % 0.0 mm 0 W/m2
00:15 9.5 °C 8.3 °C 1024.9 hPa Calm   1.6 km/h 92 % 0.0 mm 0 W/m2
00:25 9.4 °C 8.4 °C 1024.9 hPa Calm   1.6 km/h 93 % 0.0 mm 0 W/m2
00:30 9.3 °C 8.3 °C 1024.9 hPa Calm   1.6 km/h 93 % 0.0 mm 0 W/m2
00:35 9.3 °C 8.2 °C 1024.9 hPa Calm     93 % 0.0 mm 0 W/m2
00:40 9.3 °C 8.2 °C 1024.9 hPa Calm   3.2 km/h 93 % 0.0 mm 0 W/m2
00:45 9.1 °C 8.0 °C 1024.9 hPa Calm   3.2 km/h 93 % 0.0 mm 0 W/m2
00:50 9.1 °C 8.1 °C 1024.9 hPa Calm     94 % 0.0 mm 0 W/m2
00:55 8.8 °C 7.9 °C 1024.9 hPa Calm     94 % 0.0 mm 0 W/m2
01:00 8.7 °C 7.8 °C 1024.9 hPa Calm     94 % 0.0 mm 0 W/m2
01:05 8.6 °C 7.7 °C 1024.9 hPa Calm     94 % 0.0 mm 0 W/m2
01:10 8.7 °C 7.8 °C 1024.9 hPa Calm     94 % 0.0 mm 0 W/m2
01:15 8.7 °C 7.9 °C 1024.6 hPa Calm     95 % 0.0 mm 0 W/m2
01:20 8.6 °C 7.9 °C 1024.9 hPa Calm     95 % 0.0 mm 0 W/m2
01:25 8.7 °C 8.0 °C 1024.9 hPa Calm     95 % 0.0 mm 0 W/m2
01:30 8.6 °C 7.9 °C 1024.9 hPa Calm     95 % 0.0 mm 0 W/m2
01:35 8.7 °C 7.9 °C 1024.6 hPa Calm     95 % 0.0 mm 0 W/m2
01:40 8.5 °C 7.7 °C 1024.6 hPa Calm   1.6 km/h 95 % 0.0 mm 0 W/m2
01:45 8.3 °C 7.6 °C 1024.9 hPa Calm   1.6 km/h 95 % 0.0 mm 0 W/m2
01:50 8.3 °C 7.5 °C 1024.9 hPa Calm     95 % 0.0 mm 0 W/m2
01:55 8.2 °C 7.5 °C 1024.9 hPa Calm     95 % 0.0 mm 0 W/m2
02:00 8.2 °C 7.5 °C 1024.6 hPa Calm     95 % 0.0 mm 0 W/m2
02:05 8.2 °C 7.4 °C 1024.6 hPa Calm     95 % 0.0 mm 0 W/m2
02:10 8.1 °C 7.5 °C 1024.6 hPa Calm     96 % 0.0 mm 0 W/m2
02:15 8.2 °C 7.6 °C 1024.6 hPa Calm     96 % 0.0 mm 0 W/m2
02:20 8.0 °C 7.2 °C 1024.6 hPa Calm     95 % 0.0 mm 0 W/m2
02:25 7.9 °C 7.1 °C 1024.6 hPa Calm     95 % 0.0 mm 0 W/m2
02:30 7.8 °C 7.2 °C 1024.3 hPa Calm     96 % 0.0 mm 0 W/m2
02:35 7.8 °C 7.2 °C 1024.6 hPa Calm     96 % 0.0 mm 0 W/m2
02:40 7.8 °C 7.2 °C 1024.3 hPa Calm     96 % 0.0 mm 0 W/m2
02:45 7.8 °C 7.2 °C 1024.3 hPa Calm     96 % 0.0 mm 0 W/m2
02:50 7.8 °C 7.2 °C 1024.3 hPa Calm     96 % 0.0 mm 0 W/m2
02:55 7.8 °C 7.2 °C 1024.3 hPa Calm     96 % 0.0 mm 0 W/m2
03:00 7.9 °C 7.3 °C 1024.3 hPa Calm     96 % 0.0 mm 0 W/m2
03:05 7.9 °C 7.3 °C 1024.3 hPa Calm     96 % 0.0 mm 0 W/m2
03:10 7.7 °C 7.1 °C 1024.3 hPa Calm   1.6 km/h 96 % 0.0 mm 0 W/m2
03:15 7.7 °C 7.1 °C 1024.3 hPa Calm   1.6 km/h 96 % 0.0 mm 0 W/m2
03:20 7.7 °C 7.1 °C 1024.3 hPa Calm   1.6 km/h 96 % 0.0 mm 0 W/m2
03:25 7.7 °C 7.1 °C 1024.3 hPa Calm   1.6 km/h 96 % 0.0 mm 0 W/m2
03:30 7.7 °C 7.1 °C 1024.3 hPa Calm   1.6 km/h 96 % 0.0 mm 0 W/m2
03:35 7.7 °C 7.1 °C 1024.3 hPa Calm   1.6 km/h 96 % 0.0 mm 0 W/m2
03:40 7.7 °C 7.1 °C 1024.3 hPa Calm   1.6 km/h 96 % 0.0 mm 0 W/m2
03:45 7.7 °C 7.1 °C 1023.9 hPa Calm   1.6 km/h 96 % 0.0 mm 0 W/m2
03:50 7.6 °C 7.0 °C 1023.9 hPa Calm     96 % 0.0 mm 0 W/m2
03:55 7.6 °C 7.0 °C 1023.9 hPa Calm   1.6 km/h 96 % 0.0 mm 0 W/m2
04:00 7.6 °C 7.0 °C 1023.9 hPa Calm   1.6 km/h 96 % 0.0 mm 0 W/m2
04:05 7.4 °C 6.8 °C 1023.9 hPa Calm     96 % 0.0 mm 0 W/m2
04:10 7.6 °C 7.2 °C 1023.9 hPa Calm     97 % 0.0 mm 0 W/m2
04:15 7.6 °C 7.0 °C 1023.9 hPa Calm     96 % 0.0 mm 0 W/m2
04:20 7.5 °C 6.9 °C 1023.9 hPa Calm     96 % 0.0 mm 0 W/m2
04:25 7.4 °C 6.8 °C 1023.9 hPa Calm     96 % 0.0 mm 0 W/m2
04:30 7.3 °C 6.7 °C 1023.9 hPa Calm   1.6 km/h 96 % 0.0 mm 0 W/m2
04:35 7.4 °C 7.0 °C 1023.6 hPa Calm   1.6 km/h 97 % 0.0 mm 0 W/m2
04:40 7.6 °C 7.2 °C 1023.6 hPa Calm   1.6 km/h 97 % 0.0 mm 0 W/m2
04:45 7.6 °C 7.0 °C 1023.6 hPa Calm   1.6 km/h 96 % 0.0 mm 0 W/m2
04:50 7.7 °C 7.3 °C 1023.6 hPa Calm   3.2 km/h 97 % 0.0 mm 0 W/m2
04:55 7.7 °C 7.2 °C 1023.6 hPa Calm   3.2 km/h 97 % 0.0 mm 0 W/m2
05:05 7.3 °C 6.7 °C 1023.2 hPa Calm   1.6 km/h 96 % 0.0 mm 0 W/m2
05:10 7.3 °C 6.9 °C 1023.2 hPa Calm   1.6 km/h 97 % 0.0 mm 0 W/m2
05:15 7.2 °C 6.6 °C 1023.2 hPa Calm     96 % 0.0 mm 0 W/m2
05:20 7.3 °C 6.8 °C 1023.2 hPa Calm     97 % 0.0 mm 0 W/m2
05:25 7.2 °C 6.6 °C 1023.2 hPa Calm     96 % 0.0 mm 0 W/m2
05:30 7.3 °C 6.8 °C 1023.2 hPa Calm     97 % 0.0 mm 0 W/m2
05:35 7.2 °C 6.7 °C 1023.2 hPa Calm     97 % 0.0 mm 0 W/m2
05:40 7.1 °C 6.6 °C 1023.2 hPa Calm     97 % 0.0 mm 0 W/m2
05:45 7.1 °C 6.6 °C 1023.2 hPa Calm     97 % 0.0 mm 0 W/m2
05:50 7.1 °C 6.6 °C 1023.2 hPa Calm     97 % 0.0 mm 0 W/m2
05:55 7.0 °C 6.6 °C 1023.2 hPa Calm     97 % 0.0 mm 0 W/m2
06:00 7.2 °C 6.7 °C 1023.2 hPa Calm     97 % 0.0 mm 0 W/m2
06:05 7.2 °C 6.8 °C 1023.2 hPa Calm   1.6 km/h 97 % 0.0 mm 0 W/m2
06:10 7.3 °C 6.9 °C 1023.2 hPa ESE 4.8 km/h 4.8 km/h 97 % 0.0 mm 0 W/m2
06:15 7.7 °C 7.3 °C 1023.2 hPa SE 3.2 km/h 6.4 km/h 97 % 0.0 mm 0 W/m2
06:20 8.1 °C 7.6 °C 1023.6 hPa SE 1.6 km/h 11.3 km/h 97 % 0.0 mm 5 W/m2
06:25 8.3 °C 7.8 °C 1023.6 hPa SE 1.6 km/h 11.3 km/h 97 % 0.0 mm 7 W/m2
06:30 8.4 °C 8.0 °C 1023.6 hPa SE 1.6 km/h 8.0 km/h 97 % 0.0 mm 9 W/m2
06:35 8.4 °C 8.0 °C 1023.6 hPa SSE 4.8 km/h 8.0 km/h 97 % 0.0 mm 9 W/m2
06:40 8.4 °C 7.9 °C 1023.6 hPa ESE 4.8 km/h 8.0 km/h 97 % 0.0 mm 12 W/m2
06:45 8.4 °C 7.9 °C 1023.6 hPa SE 4.8 km/h 8.0 km/h 97 % 0.0 mm 16 W/m2
06:50 8.3 °C 7.9 °C 1023.6 hPa ESE 4.8 km/h 6.4 km/h 97 % 0.0 mm 19 W/m2
06:55 8.4 °C 7.9 °C 1023.6 hPa Calm   6.4 km/h 97 % 0.0 mm 25 W/m2
07:00 8.4 °C 7.9 °C 1023.6 hPa Calm   6.4 km/h 97 % 0.0 mm 30 W/m2
07:05 8.4 °C 8.0 °C 1023.6 hPa Calm   11.3 km/h 97 % 0.0 mm 33 W/m2
07:15 8.6 °C 8.1 °C 1023.6 hPa ESE 4.8 km/h 8.0 km/h 97 % 0.0 mm 39 W/m2
07:20 8.6 °C 8.2 °C 1023.6 hPa SE 1.6 km/h 8.0 km/h 97 % 0.0 mm 44 W/m2
07:25 8.7 °C 8.3 °C 1023.6 hPa SSE 1.6 km/h 9.7 km/h 97 % 0.0 mm 49 W/m2
07:30 8.9 °C 8.4 °C 1023.6 hPa SE 6.4 km/h 9.7 km/h 97 % 0.0 mm 53 W/m2
07:35 9.1 °C 8.6 °C 1023.6 hPa SE 4.8 km/h 8.0 km/h 97 % 0.0 mm 56 W/m2
07:40 9.2 °C 8.6 °C 1023.6 hPa ESE 1.6 km/h 8.0 km/h 96 % 0.0 mm 62 W/m2
07:45 9.3 °C 8.7 °C 1023.6 hPa SE 3.2 km/h 8.0 km/h 96 % 0.0 mm 67 W/m2
07:50 9.5 °C 8.9 °C 1023.6 hPa Calm   8.0 km/h 96 % 0.0 mm 70 W/m2
07:55 9.6 °C 9.0 °C 1023.6 hPa Calm   8.0 km/h 96 % 0.0 mm 77 W/m2
08:00 9.8 °C 9.2 °C 1023.6 hPa SE 1.6 km/h 8.0 km/h 96 % 0.0 mm 83 W/m2
08:05 9.9 °C 9.2 °C 1023.6 hPa ESE 1.6 km/h 11.3 km/h 95 % 0.0 mm 167 W/m2
08:10 10.1 °C 9.3 °C 1023.6 hPa SE 4.8 km/h 16.1 km/h 95 % 0.0 mm 229 W/m2
08:15 10.3 °C 9.6 °C 1023.6 hPa SE 8.0 km/h 16.1 km/h 95 % 0.0 mm 258 W/m2
08:20 10.5 °C 9.6 °C 1023.6 hPa ESE 3.2 km/h 12.9 km/h 94 % 0.0 mm 241 W/m2
08:25 10.8 °C 9.7 °C 1023.6 hPa ESE 11.3 km/h 16.1 km/h 93 % 0.0 mm 207 W/m2
08:30 10.9 °C 9.6 °C 1023.6 hPa ESE 14.5 km/h 16.1 km/h 92 % 0.0 mm 200 W/m2
08:35 11.1 °C 9.8 °C 1023.6 hPa ESE 11.3 km/h 14.5 km/h 92 % 0.0 mm 236 W/m2
08:40 11.2 °C 9.8 °C 1023.9 hPa ESE 11.3 km/h 14.5 km/h 91 % 0.0 mm 237 W/m2
08:45 11.5 °C 10.1 °C 1023.9 hPa ESE 4.8 km/h 14.5 km/h 91 % 0.0 mm 283 W/m2
08:50 11.8 °C 10.0 °C 1023.9 hPa SE 4.8 km/h 14.5 km/h 89 % 0.0 mm 327 W/m2
08:55 12.1 °C 10.1 °C 1023.9 hPa East 3.2 km/h 12.9 km/h 88 % 0.0 mm 352 W/m2
09:00 12.4 °C 10.5 °C 1023.9 hPa SE 4.8 km/h 12.9 km/h 88 % 0.0 mm 343 W/m2
09:05 12.7 °C 10.6 °C 1023.6 hPa ESE 6.4 km/h 14.5 km/h 87 % 0.0 mm 383 W/m2
09:10 13.0 °C 10.7 °C 1023.6 hPa SE 12.9 km/h 17.7 km/h 86 % 0.0 mm 392 W/m2
09:15 13.3 °C 11.0 °C 1023.6 hPa SE 3.2 km/h 17.7 km/h 86 % 0.0 mm 383 W/m2
09:20 13.6 °C 11.1 °C 1023.6 hPa East 1.6 km/h 16.1 km/h 85 % 0.0 mm 408 W/m2
09:25 13.7 °C 11.1 °C 1023.6 hPa ESE 11.3 km/h 16.1 km/h 84 % 0.0 mm 441 W/m2
09:30 13.8 °C 10.9 °C 1023.6 hPa ESE 16.1 km/h 17.7 km/h 83 % 0.0 mm 352 W/m2
09:35 13.9 °C 11.0 °C 1023.6 hPa SE 8.0 km/h 17.7 km/h 83 % 0.0 mm 364 W/m2
09:40 14.0 °C 11.2 °C 1023.6 hPa ESE 11.3 km/h 17.7 km/h 83 % 0.0 mm 355 W/m2
09:45 14.1 °C 11.1 °C 1023.6 hPa SSE 9.7 km/h 17.7 km/h 82 % 0.0 mm 413 W/m2
09:50 14.4 °C 11.4 °C 1023.2 hPa East 4.8 km/h 17.7 km/h 82 % 0.0 mm 441 W/m2
09:55 14.6 °C 11.4 °C 1023.2 hPa ESE 8.0 km/h 14.5 km/h 81 % 0.0 mm 396 W/m2
10:00 14.6 °C 11.0 °C 1023.2 hPa ESE 8.0 km/h 17.7 km/h 79 % 0.0 mm 439 W/m2
10:05 14.8 °C 11.4 °C 1023.2 hPa ESE 11.3 km/h 20.9 km/h 80 % 0.0 mm 487 W/m2
10:10 15.1 °C 11.2 °C 1023.2 hPa SE 12.9 km/h 20.9 km/h 78 % 0.0 mm 476 W/m2
10:15 15.2 °C 11.4 °C 1023.2 hPa ENE 4.8 km/h 19.3 km/h 78 % 0.0 mm 461 W/m2
10:20 15.4 °C 11.6 °C 1023.2 hPa ESE 4.8 km/h 20.9 km/h 78 % 0.0 mm 559 W/m2
10:25 15.7 °C 11.2 °C 1023.2 hPa NE 12.9 km/h 20.9 km/h 75 % 0.0 mm 510 W/m2
10:30 15.6 °C 11.0 °C 1023.2 hPa ESE 4.8 km/h 19.3 km/h 74 % 0.0 mm 548 W/m2
10:35 15.7 °C 11.1 °C 1023.2 hPa SE 6.4 km/h 20.9 km/h 74 % 0.0 mm 489 W/m2
10:40 16.0 °C 11.6 °C 1022.9 hPa ESE 12.9 km/h 20.9 km/h 75 % 0.0 mm 485 W/m2
10:45 16.0 °C 11.4 °C 1022.9 hPa ENE 4.8 km/h 20.9 km/h 74 % 0.0 mm 476 W/m2
10:50 16.2 °C 11.3 °C 1022.9 hPa East 4.8 km/h 20.9 km/h 73 % 0.0 mm 529 W/m2
10:55 16.1 °C 10.6 °C 1022.9 hPa ESE 12.9 km/h 20.9 km/h 70 % 0.0 mm 538 W/m2
11:05 16.7 °C 11.4 °C 1022.6 hPa ESE 8.0 km/h 22.5 km/h 71 % 0.0 mm 668 W/m2
11:10 16.9 °C 11.2 °C 1022.6 hPa SE 4.8 km/h 16.1 km/h 69 % 0.0 mm 744 W/m2
11:15 17.2 °C 11.2 °C 1022.6 hPa SE 6.4 km/h 16.1 km/h 68 % 0.0 mm 737 W/m2
11:20 17.3 °C 11.1 °C 1022.6 hPa ESE 12.9 km/h 19.3 km/h 67 % 0.0 mm 721 W/m2
11:25 17.5 °C 11.3 °C 1022.6 hPa ESE 9.7 km/h 19.3 km/h 67 % 0.0 mm 661 W/m2
11:30 17.6 °C 10.9 °C 1022.6 hPa ESE 6.4 km/h 27.4 km/h 65 % 0.0 mm 657 W/m2
11:35 17.4 °C 11.2 °C 1022.6 hPa South 8.0 km/h 27.4 km/h 67 % 0.0 mm 559 W/m2
11:40 17.7 °C 11.7 °C 1022.2 hPa ENE 6.4 km/h 17.7 km/h 68 % 0.0 mm 647 W/m2
11:45 17.7 °C 11.7 °C 1022.2 hPa SE 6.4 km/h 24.1 km/h 68 % 0.0 mm 649 W/m2
11:50 17.7 °C 11.3 °C 1022.2 hPa ENE 4.8 km/h 24.1 km/h 66 % 0.0 mm 735 W/m2
11:55 17.8 °C 11.4 °C 1022.2 hPa ESE 3.2 km/h 22.5 km/h 66 % 0.0 mm 751 W/m2
12:00 18.3 °C 11.3 °C 1022.2 hPa SE 4.8 km/h 22.5 km/h 64 % 0.0 mm 745 W/m2
12:05 18.4 °C 12.0 °C 1021.9 hPa SE 20.9 km/h 24.1 km/h 66 % 0.0 mm 812 W/m2
12:10 18.4 °C 11.2 °C 1021.9 hPa ESE 6.4 km/h 24.1 km/h 63 % 0.0 mm 816 W/m2
12:15 18.8 °C 12.1 °C 1021.9 hPa SE 12.9 km/h 22.5 km/h 65 % 0.0 mm 779 W/m2
12:20 18.8 °C 11.9 °C 1021.9 hPa East 12.9 km/h 17.7 km/h 64 % 0.0 mm 835 W/m2
12:25 18.8 °C 11.4 °C 1021.9 hPa SE 3.2 km/h 17.7 km/h 62 % 0.0 mm 870 W/m2
12:30 18.9 °C 11.3 °C 1021.9 hPa SSW 9.7 km/h 22.5 km/h 61 % 0.0 mm 858 W/m2
12:35 19.0 °C 12.0 °C 1021.9 hPa ESE 14.5 km/h 22.5 km/h 64 % 0.0 mm 884 W/m2
12:40 19.3 °C 11.4 °C 1021.9 hPa ESE 14.5 km/h 20.9 km/h 60 % 0.0 mm 881 W/m2
12:45 19.5 °C 11.3 °C 1021.6 hPa East 8.0 km/h 20.9 km/h 59 % 0.0 mm 786 W/m2
12:50 19.2 °C 11.7 °C 1021.6 hPa SE 17.7 km/h 24.1 km/h 62 % 0.0 mm 826 W/m2
12:55 19.2 °C 11.5 °C 1021.6 hPa ESE 8.0 km/h 24.1 km/h 61 % 0.0 mm 881 W/m2
13:00 19.4 °C 12.5 °C 1021.6 hPa East 12.9 km/h 19.3 km/h 64 % 0.0 mm 872 W/m2
13:05 19.8 °C 12.3 °C 1021.2 hPa SE 8.0 km/h 17.7 km/h 62 % 0.0 mm 896 W/m2
13:10 20.0 °C 13.2 °C 1021.2 hPa ESE 11.3 km/h 17.7 km/h 65 % 0.0 mm 881 W/m2
13:15 20.1 °C 12.6 °C 1021.2 hPa East 4.8 km/h 17.7 km/h 62 % 0.0 mm 860 W/m2
13:20 20.3 °C 12.5 °C 1021.2 hPa ESE 11.3 km/h 20.9 km/h 61 % 0.0 mm 902 W/m2
13:25 20.4 °C 13.6 °C 1021.2 hPa NE 6.4 km/h 20.9 km/h 65 % 0.0 mm 909 W/m2
13:30 20.3 °C 12.5 °C 1020.9 hPa ESE 20.9 km/h 20.9 km/h 61 % 0.0 mm 640 W/m2
13:35 20.1 °C 11.8 °C 1020.9 hPa South 11.3 km/h 20.9 km/h 59 % 0.0 mm 694 W/m2
13:40 19.9 °C 12.4 °C 1020.9 hPa SE 12.9 km/h 20.9 km/h 62 % 0.0 mm 719 W/m2
13:45 20.2 °C 12.4 °C 1020.9 hPa SE 4.8 km/h 20.9 km/h 61 % 0.0 mm 756 W/m2
13:50 20.3 °C 12.3 °C 1020.9 hPa East 4.8 km/h 20.9 km/h 60 % 0.0 mm 749 W/m2
13:55 20.5 °C 13.0 °C 1020.5 hPa South 14.5 km/h 24.1 km/h 62 % 0.0 mm 840 W/m2
14:00 20.4 °C 11.4 °C 1020.5 hPa SSE 12.9 km/h 33.8 km/h 56 % 0.0 mm 870 W/m2
14:05 20.8 °C 12.8 °C 1020.5 hPa SSE 19.3 km/h 33.8 km/h 60 % 0.0 mm 930 W/m2
14:10 20.9 °C 11.8 °C 1020.5 hPa ESE 6.4 km/h 29.0 km/h 56 % 0.0 mm 856 W/m2
14:15 21.2 °C 11.8 °C 1020.5 hPa ESE 14.5 km/h 29.0 km/h 55 % 0.0 mm 826 W/m2
14:20 21.0 °C 11.9 °C 1020.2 hPa ESE 12.9 km/h 20.9 km/h 56 % 0.0 mm 886 W/m2
14:25 21.2 °C 12.9 °C 1020.2 hPa ESE 3.2 km/h 24.1 km/h 59 % 0.0 mm 902 W/m2
14:30 21.6 °C 12.9 °C 1020.2 hPa South 3.2 km/h 24.1 km/h 58 % 0.0 mm 907 W/m2
14:35 21.7 °C 12.5 °C 1019.9 hPa SSE 3.2 km/h 22.5 km/h 56 % 0.0 mm 770 W/m2
14:40 21.5 °C 12.4 °C 1019.9 hPa ESE 16.1 km/h 24.1 km/h 56 % 0.0 mm 919 W/m2
14:45 21.6 °C 12.1 °C 1019.9 hPa SE 9.7 km/h 24.1 km/h 55 % 0.0 mm 879 W/m2
14:50 21.7 °C 12.8 °C 1019.9 hPa ESE 14.5 km/h 20.9 km/h 57 % 0.0 mm 868 W/m2
14:55 21.8 °C 12.1 °C 1019.5 hPa ESE 14.5 km/h 19.3 km/h 54 % 0.0 mm 860 W/m2
15:00 21.7 °C 11.4 °C 1019.5 hPa SSE 12.9 km/h 20.9 km/h 52 % 0.0 mm 833 W/m2
15:10 21.9 °C 11.0 °C 1019.5 hPa ESE 17.7 km/h 25.7 km/h 50 % 0.0 mm 891 W/m2
15:15 22.2 °C 11.6 °C 1019.5 hPa East 12.9 km/h 24.1 km/h 51 % 0.0 mm 882 W/m2
15:20 22.2 °C 11.3 °C 1019.5 hPa SE 3.2 km/h 24.1 km/h 50 % 0.0 mm 875 W/m2
15:25 22.2 °C 11.3 °C 1019.2 hPa East 8.0 km/h 20.9 km/h 50 % 0.0 mm 861 W/m2
15:30 22.3 °C 11.4 °C 1019.2 hPa ESE 11.3 km/h 20.9 km/h 50 % 0.0 mm 810 W/m2
15:35 22.3 °C 11.4 °C 1019.2 hPa SE 16.1 km/h 27.4 km/h 50 % 0.0 mm 830 W/m2
15:40 22.3 °C 11.9 °C 1019.2 hPa SE 6.4 km/h 27.4 km/h 52 % 0.0 mm 842 W/m2
15:45 22.6 °C 11.6 °C 1019.2 hPa SE 14.5 km/h 24.1 km/h 50 % 0.0 mm 823 W/m2
15:50 22.4 °C 12.0 °C 1019.2 hPa SE 11.3 km/h 24.1 km/h 52 % 0.0 mm 819 W/m2
15:55 22.4 °C 12.3 °C 1018.8 hPa ESE 19.3 km/h 29.0 km/h 53 % 0.0 mm 833 W/m2
16:00 22.6 °C 11.4 °C 1018.8 hPa ESE 14.5 km/h 29.0 km/h 49 % 0.0 mm 802 W/m2
16:10 22.8 °C 12.1 °C 1018.5 hPa SSE 11.3 km/h 29.0 km/h 51 % 0.0 mm 749 W/m2
16:15 22.7 °C 11.4 °C 1018.5 hPa East 4.8 km/h 29.0 km/h 49 % 0.0 mm 756 W/m2
16:20 22.9 °C 11.7 °C 1018.5 hPa SE 11.3 km/h 25.7 km/h 49 % 0.0 mm 722 W/m2
16:25 22.9 °C 11.0 °C 1018.2 hPa SE 12.9 km/h 25.7 km/h 47 % 0.0 mm 731 W/m2
16:30 23.1 °C 11.5 °C 1018.2 hPa SE 8.0 km/h 17.7 km/h 48 % 0.0 mm 698 W/m2
16:35 22.9 °C 11.0 °C 1018.2 hPa ESE 4.8 km/h 19.3 km/h 47 % 0.0 mm 656 W/m2
16:40 23.0 °C 11.7 °C 1018.2 hPa ESE 16.1 km/h 22.5 km/h 49 % 0.0 mm 714 W/m2
16:45 23.2 °C 13.1 °C 1018.2 hPa ESE 12.9 km/h 22.5 km/h 53 % 0.0 mm 761 W/m2
16:50 23.2 °C 11.3 °C 1017.8 hPa SSE 17.7 km/h 20.9 km/h 47 % 0.0 mm 686 W/m2
16:55 23.2 °C 11.9 °C 1017.8 hPa ESE 16.1 km/h 20.9 km/h 49 % 0.0 mm 657 W/m2
17:00 23.3 °C 11.4 °C 1017.8 hPa SE 11.3 km/h 27.4 km/h 47 % 0.0 mm 640 W/m2
17:05 22.9 °C 11.0 °C 1017.8 hPa SE 11.3 km/h 27.4 km/h 47 % 0.0 mm 643 W/m2
17:10 23.1 °C 11.2 °C 1017.5 hPa SE 11.3 km/h 24.1 km/h 47 % 0.0 mm 696 W/m2
17:15 23.2 °C 11.3 °C 1017.5 hPa East 12.9 km/h 22.5 km/h 47 % 0.0 mm 682 W/m2
17:20 23.3 °C 11.7 °C 1017.5 hPa ESE 19.3 km/h 20.9 km/h 48 % 0.0 mm 661 W/m2
17:25 23.4 °C 11.8 °C 1017.5 hPa East 16.1 km/h 20.9 km/h 48 % 0.0 mm 645 W/m2
17:30 23.5 °C 11.2 °C 1017.2 hPa ESE 22.5 km/h 24.1 km/h 46 % 0.0 mm 568 W/m2
17:35 23.3 °C 11.6 °C 1017.2 hPa East 14.5 km/h 25.7 km/h 48 % 0.0 mm 610 W/m2
17:40 23.4 °C 11.2 °C 1017.2 hPa SE 17.7 km/h 25.7 km/h 46 % 0.0 mm 578 W/m2
17:45 23.3 °C 12.0 °C 1016.8 hPa East 8.0 km/h 24.1 km/h 49 % 0.0 mm 462 W/m2
17:50 23.2 °C 11.6 °C 1016.8 hPa South 9.7 km/h 19.3 km/h 48 % 0.0 mm 476 W/m2
17:55 23.1 °C 11.5 °C 1016.8 hPa SE 14.5 km/h 20.9 km/h 48 % 0.0 mm 466 W/m2
18:00 23.2 °C 11.9 °C 1016.8 hPa ENE 4.8 km/h 20.9 km/h 49 % 0.0 mm 427 W/m2
18:05 23.4 °C 12.1 °C 1016.8 hPa East 17.7 km/h 20.9 km/h 49 % 0.0 mm 540 W/m2
18:10 23.6 °C 12.3 °C 1016.5 hPa East 8.0 km/h 20.9 km/h 49 % 0.0 mm 478 W/m2
18:15 23.4 °C 11.8 °C 1016.5 hPa ESE 8.0 km/h 24.1 km/h 48 % 0.0 mm 420 W/m2
18:20 23.3 °C 11.6 °C 1016.5 hPa ESE 4.8 km/h 24.1 km/h 48 % 0.0 mm 422 W/m2
18:25 23.2 °C 11.9 °C 1016.5 hPa ESE 16.1 km/h 24.1 km/h 49 % 0.0 mm 480 W/m2
18:30 23.3 °C 12.3 °C 1016.1 hPa ESE 17.7 km/h 22.5 km/h 50 % 0.0 mm 448 W/m2
18:35 23.4 °C 12.4 °C 1016.1 hPa East 6.4 km/h 22.5 km/h 50 % 0.0 mm 446 W/m2
18:40 23.5 °C 12.2 °C 1016.1 hPa East 17.7 km/h 24.1 km/h 49 % 0.0 mm 411 W/m2
18:45 23.3 °C 11.3 °C 1015.8 hPa East 11.3 km/h 24.1 km/h 47 % 0.0 mm 411 W/m2
18:50 23.2 °C 11.5 °C 1015.8 hPa SSE 8.0 km/h 24.1 km/h 48 % 0.0 mm 397 W/m2
18:55 23.3 °C 11.3 °C 1016.1 hPa ESE 14.5 km/h 20.9 km/h 47 % 0.0 mm 392 W/m2
19:00 23.2 °C 11.3 °C 1016.1 hPa ESE 6.4 km/h 24.1 km/h 47 % 0.0 mm 383 W/m2
19:05 23.2 °C 11.2 °C 1015.8 hPa East 12.9 km/h 24.1 km/h 47 % 0.0 mm 366 W/m2
19:10 23.1 °C 12.4 °C 1015.8 hPa ESE 8.0 km/h 22.5 km/h 51 % 0.0 mm 334 W/m2
19:15 22.9 °C 12.6 °C 1015.8 hPa ESE 8.0 km/h 19.3 km/h 52 % 0.0 mm 316 W/m2
19:20 23.0 °C 11.7 °C 1015.8 hPa ESE 11.3 km/h 19.3 km/h 49 % 0.0 mm 297 W/m2
19:25 23.1 °C 11.5 °C 1015.8 hPa NE 1.6 km/h 20.9 km/h 48 % 0.0 mm 272 W/m2
19:30 22.9 °C 11.3 °C 1015.8 hPa East 8.0 km/h 22.5 km/h 48 % 0.0 mm 251 W/m2
19:35 22.7 °C 11.1 °C 1015.8 hPa ESE 6.4 km/h 22.5 km/h 48 % 0.0 mm 185 W/m2
19:40 22.6 °C 11.4 °C 1015.8 hPa ENE 14.5 km/h 17.7 km/h 49 % 0.0 mm 206 W/m2
19:45 22.5 °C 11.6 °C 1015.8 hPa East 12.9 km/h 24.1 km/h 50 % 0.0 mm 193 W/m2
19:50 22.3 °C 11.7 °C 1015.5 hPa East 4.8 km/h 24.1 km/h 51 % 0.0 mm 188 W/m2
19:55 22.3 °C 12.2 °C 1015.5 hPa East 11.3 km/h 19.3 km/h 53 % 0.0 mm 178 W/m2
20:00 22.3 °C 11.9 °C 1015.5 hPa East 14.5 km/h 20.9 km/h 52 % 0.0 mm 141 W/m2
20:05 22.1 °C 11.7 °C 1015.5 hPa ESE 3.2 km/h 20.9 km/h 52 % 0.0 mm 155 W/m2
20:10 22.1 °C 11.4 °C 1015.5 hPa East 8.0 km/h 17.7 km/h 51 % 0.0 mm 146 W/m2
20:15 21.9 °C 11.6 °C 1015.5 hPa SE 3.2 km/h 19.3 km/h 52 % 0.0 mm 148 W/m2
20:20 21.8 °C 11.8 °C 1015.5 hPa ESE 4.8 km/h 19.3 km/h 53 % 0.0 mm 116 W/m2
20:25 21.7 °C 11.7 °C 1015.5 hPa ENE 6.4 km/h 16.1 km/h 53 % 0.0 mm 93 W/m2
20:35 21.3 °C 12.1 °C 1015.5 hPa East 9.7 km/h 16.1 km/h 56 % 0.0 mm 47 W/m2
20:40 21.0 °C 11.9 °C 1015.5 hPa ESE 4.8 km/h 16.1 km/h 56 % 0.0 mm 42 W/m2
20:45 20.9 °C 11.8 °C 1015.5 hPa ESE 8.0 km/h 17.7 km/h 56 % 0.0 mm 37 W/m2
20:50 20.7 °C 11.8 °C 1015.5 hPa Calm   17.7 km/h 57 % 0.0 mm 35 W/m2
20:55 20.3 °C 11.8 °C 1015.1 hPa East 3.2 km/h 12.9 km/h 58 % 0.0 mm 33 W/m2
21:00 20.2 °C 11.6 °C 1015.5 hPa SE 8.0 km/h 12.9 km/h 58 % 0.0 mm 30 W/m2
21:05 20.1 °C 11.8 °C 1015.5 hPa East 8.0 km/h 14.5 km/h 59 % 0.0 mm 26 W/m2
21:10 20.0 °C 11.7 °C 1015.5 hPa ESE 8.0 km/h 14.5 km/h 59 % 0.0 mm 23 W/m2
21:15 19.9 °C 11.6 °C 1015.5 hPa East 1.6 km/h 14.5 km/h 59 % 0.0 mm 19 W/m2
21:20 19.6 °C 11.6 °C 1015.5 hPa East 4.8 km/h 12.9 km/h 60 % 0.0 mm 16 W/m2
21:25 19.4 °C 11.5 °C 1015.5 hPa ESE 6.4 km/h 12.9 km/h 60 % 0.0 mm 12 W/m2
21:30 19.3 °C 11.3 °C 1015.5 hPa ESE 4.8 km/h 11.3 km/h 60 % 0.0 mm 9 W/m2
21:35 19.2 °C 11.5 °C 1015.5 hPa Calm   11.3 km/h 61 % 0.0 mm 7 W/m2
21:40 19.0 °C 11.3 °C 1015.5 hPa East 1.6 km/h 11.3 km/h 61 % 0.0 mm 0 W/m2
21:45 18.7 °C 11.2 °C 1015.5 hPa ESE 3.2 km/h 4.8 km/h 62 % 0.0 mm 0 W/m2
21:50 18.3 °C 11.3 °C 1015.5 hPa Calm   4.8 km/h 64 % 0.0 mm 0 W/m2
21:55 18.2 °C 11.2 °C 1015.8 hPa ESE 1.6 km/h 6.4 km/h 64 % 0.0 mm 0 W/m2
22:00 17.8 °C 11.4 °C 1015.8 hPa ESE 3.2 km/h 6.4 km/h 66 % 0.0 mm 0 W/m2
22:05 17.3 °C 11.5 °C 1015.8 hPa Calm   4.8 km/h 69 % 0.0 mm 0 W/m2
22:10 16.9 °C 11.4 °C 1015.8 hPa Calm   4.8 km/h 70 % 0.0 mm 0 W/m2
22:15 16.4 °C 11.5 °C 1015.8 hPa Calm   3.2 km/h 73 % 0.0 mm 0 W/m2
22:20 15.8 °C 11.2 °C 1015.8 hPa ENE 3.2 km/h 3.2 km/h 74 % 0.0 mm 0 W/m2
22:25 15.5 °C 11.3 °C 1015.8 hPa ENE 1.6 km/h 3.2 km/h 76 % 0.0 mm 0 W/m2
22:30 15.3 °C 11.3 °C 1015.8 hPa Calm   3.2 km/h 77 % 0.0 mm 0 W/m2
22:35 14.9 °C 11.1 °C 1015.8 hPa Calm   4.8 km/h 78 % 0.0 mm 0 W/m2
22:40 14.7 °C 11.1 °C 1015.8 hPa Calm   4.8 km/h 79 % 0.0 mm 0 W/m2
22:45 14.4 °C 11.0 °C 1015.8 hPa Calm   3.2 km/h 80 % 0.0 mm 0 W/m2
22:50 14.3 °C 11.1 °C 1015.8 hPa Calm   3.2 km/h 81 % 0.0 mm 0 W/m2
22:55 14.2 °C 11.2 °C 1015.8 hPa ENE 1.6 km/h 4.8 km/h 82 % 0.0 mm 0 W/m2
23:00 14.4 °C 11.4 °C 1015.8 hPa ENE 3.2 km/h 6.4 km/h 82 % 0.0 mm 0 W/m2
23:05 14.7 °C 11.5 °C 1015.8 hPa East 4.8 km/h 9.7 km/h 81 % 0.0 mm 0 W/m2
23:10 14.8 °C 11.6 °C 1015.5 hPa East 4.8 km/h 9.7 km/h 81 % 0.0 mm 0 W/m2
23:15 15.2 °C 11.7 °C 1015.5 hPa ENE 3.2 km/h 9.7 km/h 80 % 0.0 mm 0 W/m2
23:20 15.4 °C 11.8 °C 1015.5 hPa East 1.6 km/h 11.3 km/h 79 % 0.0 mm 0 W/m2
23:25 15.6 °C 11.7 °C 1015.5 hPa ESE 4.8 km/h 11.3 km/h 78 % 0.0 mm 0 W/m2
23:30 15.4 °C 11.6 °C 1015.5 hPa ENE 3.2 km/h 9.7 km/h 78 % 0.0 mm 0 W/m2
23:35 15.0 °C 11.4 °C 1015.5 hPa ENE 1.6 km/h 6.4 km/h 79 % 0.0 mm 0 W/m2
23:40 15.0 °C 11.6 °C 1015.5 hPa East 3.2 km/h 8.0 km/h 80 % 0.0 mm 0 W/m2
23:45 15.0 °C 11.6 °C 1015.5 hPa East 6.4 km/h 9.7 km/h 80 % 0.0 mm 0 W/m2
23:50 15.1 °C 11.7 °C 1015.5 hPa East 4.8 km/h 9.7 km/h 80 % 0.0 mm 0 W/m2
23:55 15.1 °C 11.5 °C 1015.5 hPa East 3.2 km/h 8.0 km/h 79 % 0.0 mm 0 W/m2
Avec l'autorisation de Weather Underground - 1.75 mb